createdAt,value
2019-04-27T00:00:00.116Z,1.30
2019-04-27T00:02:28.083Z,0.97
2019-04-27T00:05:06.033Z,1.00
2019-04-27T00:07:44.033Z,0.80
2019-04-27T00:10:33.472Z,1.10
2019-04-27T00:13:05.783Z,1.13
2019-04-27T00:15:37.221Z,1.00
2019-04-27T00:18:09.456Z,1.10
2019-04-27T00:20:56.224Z,0.87
2019-04-27T00:23:29.765Z,0.90
2019-04-27T00:25:59.278Z,1.00
2019-04-27T00:28:30.642Z,1.10
2019-04-27T00:31:00.372Z,1.10
2019-04-27T00:33:29.916Z,1.10
2019-04-27T00:36:02.928Z,0.90
2019-04-27T00:38:39.736Z,0.97
2019-04-27T00:41:10.837Z,1.13
2019-04-27T00:43:40.396Z,1.10
2019-04-27T00:46:11.566Z,1.27
2019-04-27T00:49:00.422Z,0.70
2019-04-27T00:51:29.975Z,0.97
2019-04-27T00:53:59.461Z,0.93
2019-04-27T00:56:42.986Z,0.90
2019-04-27T00:59:21.148Z,0.90
2019-04-27T01:04:34.452Z,1.00
2019-04-27T01:07:05.380Z,1.00
2019-04-27T01:09:35.630Z,0.80
2019-04-27T01:12:05.485Z,0.90
2019-04-27T01:14:35.092Z,0.80
2019-04-27T01:17:04.708Z,0.90
2019-04-27T01:19:34.263Z,0.90
2019-04-27T01:22:03.904Z,0.80
2019-04-27T01:24:33.363Z,0.93
2019-04-27T01:27:18.960Z,0.83
2019-04-27T01:29:49.962Z,0.80
2019-04-27T01:32:20.665Z,0.80
2019-04-27T01:34:51.946Z,0.90
2019-04-27T01:37:21.436Z,0.80
2019-04-27T01:39:51.144Z,0.80
2019-04-27T01:42:20.637Z,0.83
2019-04-27T01:44:51.745Z,0.90
2019-04-27T01:47:21.273Z,0.97
2019-04-27T01:49:50.846Z,0.70
2019-04-27T01:52:20.380Z,1.00
2019-04-27T01:54:49.874Z,0.90
2019-04-27T01:57:19.794Z,0.87
2019-04-27T01:59:49.304Z,1.00
2019-04-27T02:02:21.867Z,1.00
2019-04-27T02:05:09.081Z,0.50
2019-04-27T02:07:39.513Z,0.87
2019-04-27T02:10:10.788Z,0.80
2019-04-27T02:12:40.253Z,0.80
2019-04-27T02:15:10.702Z,0.80
2019-04-27T02:17:40.204Z,0.67
2019-04-27T02:20:10.415Z,0.70
2019-04-27T02:22:39.891Z,0.80
2019-04-27T02:25:09.898Z,0.90
2019-04-27T02:27:41.044Z,0.80
2019-04-27T02:30:30.611Z,1.00
2019-04-27T02:35:51.515Z,0.77
2019-04-27T02:38:20.973Z,1.00
2019-04-27T02:40:54.416Z,0.80
2019-04-27T02:43:41.309Z,0.90
2019-04-27T02:46:10.998Z,0.70
2019-04-27T02:48:55.977Z,0.80
2019-04-27T02:54:01.693Z,0.80
2019-04-27T02:56:31.244Z,1.10
2019-04-27T02:59:00.792Z,0.80
2019-04-27T03:01:32.055Z,1.00
2019-04-27T03:04:01.882Z,0.90
2019-04-27T03:06:31.439Z,0.83
2019-04-27T03:09:00.980Z,0.90
2019-04-27T03:11:32.049Z,0.90
2019-04-27T03:14:03.842Z,0.90
2019-04-27T03:16:51.067Z,0.97
2019-04-27T03:19:40.190Z,0.80
2019-04-27T03:22:23.298Z,1.00
2019-04-27T03:25:09.894Z,0.80
2019-04-27T03:27:40.750Z,0.90
2019-04-27T03:30:12.784Z,1.00
2019-04-27T03:32:43.524Z,0.97
2019-04-27T03:35:13.710Z,0.90
2019-04-27T03:37:43.543Z,0.97
2019-04-27T03:40:13.947Z,1.00
2019-04-27T03:42:45.585Z,1.00
2019-04-27T03:45:15.258Z,1.00
2019-04-27T03:47:45.293Z,1.10
2019-04-27T03:50:16.576Z,1.00
2019-04-27T03:52:55.027Z,1.00
2019-04-27T03:55:43.026Z,0.80
2019-04-27T03:58:21.396Z,0.90
2019-04-27T04:00:52.133Z,0.80
2019-04-27T04:03:21.492Z,0.80
2019-04-27T04:05:52.020Z,1.00
2019-04-27T04:08:21.856Z,1.00
2019-04-27T04:10:53.149Z,0.90
2019-04-27T04:13:29.439Z,1.10
2019-04-27T04:19:00.901Z,0.80
2019-04-27T04:21:30.196Z,0.90
2019-04-27T04:24:00.935Z,1.13
2019-04-27T04:26:32.902Z,0.90
2019-04-27T04:29:02.752Z,1.00
2019-04-27T04:31:33.182Z,1.07
2019-04-27T04:34:03.091Z,0.80
2019-04-27T04:36:32.664Z,0.93
2019-04-27T04:39:02.253Z,1.27
2019-04-27T04:41:33.384Z,1.00
2019-04-27T04:44:02.643Z,1.10
2019-04-27T04:46:50.249Z,1.00
2019-04-27T04:49:19.966Z,0.90
2019-04-27T04:51:50.358Z,1.00
2019-04-27T04:54:24.254Z,1.10
2019-04-27T04:56:51.379Z,0.90
2019-04-27T04:59:20.887Z,0.87
2019-04-27T05:01:50.457Z,0.90
2019-04-27T05:04:20.023Z,1.00
2019-04-27T05:06:50.761Z,1.13
2019-04-27T05:09:20.386Z,0.93
2019-04-27T05:11:49.864Z,0.80
2019-04-27T05:14:19.924Z,0.90
2019-04-27T05:16:49.606Z,0.90
2019-04-27T05:19:19.081Z,1.07
2019-04-27T05:21:49.135Z,1.00
2019-04-27T05:24:19.336Z,0.90
2019-04-27T05:26:48.871Z,0.90
2019-04-27T05:29:19.133Z,0.83
2019-04-27T05:31:49.111Z,1.07
2019-04-27T05:34:19.684Z,0.90
2019-04-27T05:36:52.458Z,1.00
2019-04-27T05:39:24.863Z,1.00
2019-04-27T05:41:51.861Z,1.03
2019-04-27T05:44:34.510Z,1.00
2019-04-27T05:47:11.723Z,1.10
2019-04-27T05:49:41.004Z,1.00
2019-04-27T05:52:14.661Z,0.90
2019-04-27T05:54:42.619Z,0.97
2019-04-27T05:57:12.120Z,0.97
2019-04-27T05:59:41.580Z,0.90
2019-04-27T06:02:11.079Z,1.00
2019-04-27T06:04:41.417Z,1.10
2019-04-27T06:07:11.019Z,1.27
2019-04-27T06:09:40.475Z,1.20
2019-04-27T06:12:09.936Z,0.90
2019-04-27T06:14:39.437Z,1.20
2019-04-27T06:17:09.528Z,0.93
2019-04-27T06:19:39.167Z,1.00
2019-04-27T06:22:09.666Z,0.97
2019-04-27T06:24:39.754Z,1.00
2019-04-27T06:27:09.461Z,1.00
2019-04-27T06:29:40.796Z,1.03
2019-04-27T06:32:10.900Z,1.30
2019-04-27T06:34:40.569Z,0.93
2019-04-27T06:37:10.079Z,1.00
2019-04-27T06:39:39.533Z,1.00
2019-04-27T06:42:16.765Z,1.20
2019-04-27T06:44:40.338Z,1.20
2019-04-27T06:47:09.825Z,1.30
2019-04-27T06:49:39.611Z,1.13
2019-04-27T06:52:09.240Z,1.10
2019-04-27T06:54:38.982Z,1.30
2019-04-27T06:57:09.224Z,1.47
2019-04-27T06:59:39.987Z,1.20
2019-04-27T07:02:09.567Z,1.30
2019-04-27T07:04:39.202Z,1.10
2019-04-27T07:07:09.777Z,1.13
2019-04-27T07:09:39.371Z,1.23
2019-04-27T07:12:09.132Z,1.90
2019-04-27T07:14:51.783Z,1.20
2019-04-27T07:17:09.939Z,1.50
2019-04-27T07:19:39.808Z,1.30
2019-04-27T07:22:11.400Z,1.20
2019-04-27T07:24:40.757Z,1.37
2019-04-27T07:27:10.297Z,1.30
2019-04-27T07:29:44.553Z,1.10
2019-04-27T07:32:11.255Z,1.20
2019-04-27T07:34:40.849Z,1.10
2019-04-27T07:37:11.146Z,1.10
2019-04-27T07:39:40.833Z,1.27
2019-04-27T07:42:10.401Z,1.13
2019-04-27T07:44:41.556Z,1.10
2019-04-27T07:50:05.364Z,1.00
2019-04-27T07:52:37.796Z,1.47
2019-04-27T07:55:08.604Z,1.20
2019-04-27T07:57:39.781Z,1.37
2019-04-27T08:00:12.875Z,1.20
2019-04-27T08:02:42.376Z,1.20
2019-04-27T08:05:12.026Z,1.20
2019-04-27T08:07:41.537Z,1.37
2019-04-27T08:10:11.173Z,1.30
2019-04-27T08:12:40.706Z,1.20
2019-04-27T08:15:10.444Z,1.13
2019-04-27T08:17:42.674Z,1.27
2019-04-27T08:20:11.896Z,1.20
2019-04-27T08:22:41.526Z,1.40
2019-04-27T08:25:11.478Z,1.30
2019-04-27T08:27:42.596Z,1.70
2019-04-27T08:30:26.250Z,1.20
2019-04-27T08:32:59.250Z,1.20
2019-04-27T08:35:31.052Z,1.43
2019-04-27T08:37:59.877Z,1.37
2019-04-27T08:40:29.417Z,1.30
2019-04-27T08:42:59.310Z,1.53
2019-04-27T08:45:29.365Z,1.43
2019-04-27T08:47:59.534Z,1.60
2019-04-27T08:50:29.274Z,1.77
2019-04-27T08:53:00.691Z,1.80
2019-04-27T08:55:30.081Z,1.80
2019-04-27T08:57:59.603Z,1.70
2019-04-27T09:00:29.226Z,1.70
2019-04-27T09:02:59.532Z,1.80
2019-04-27T09:05:29.204Z,1.70
2019-04-27T09:08:00.314Z,1.70
2019-04-27T09:10:34.477Z,1.87
2019-04-27T09:13:05.691Z,1.57
2019-04-27T09:15:36.807Z,1.93
2019-04-27T09:18:06.398Z,1.50
2019-04-27T09:20:40.170Z,1.80
2019-04-27T09:23:09.962Z,1.77
2019-04-27T09:25:39.743Z,1.80
2019-04-27T09:28:09.355Z,1.70
2019-04-27T09:30:39.414Z,1.80
2019-04-27T09:33:09.131Z,1.73
2019-04-27T09:35:38.766Z,1.87
2019-04-27T09:38:08.340Z,1.67
2019-04-27T09:40:37.879Z,1.70
2019-04-27T09:43:07.586Z,2.00
2019-04-27T09:45:37.318Z,1.90
2019-04-27T09:48:06.996Z,1.80
2019-04-27T09:50:36.532Z,1.70
2019-04-27T09:53:06.481Z,1.90
2019-04-27T09:55:36.845Z,1.97
2019-04-27T09:58:06.655Z,1.83
2019-04-27T10:00:36.571Z,1.10
2019-04-27T10:03:06.742Z,1.00
2019-04-27T10:05:36.845Z,0.80
2019-04-27T10:08:06.635Z,0.97
2019-04-27T10:10:37.232Z,0.77
2019-04-27T10:13:07.229Z,0.60
2019-04-27T10:15:36.708Z,0.80
2019-04-27T10:18:06.449Z,1.20
2019-04-27T10:20:40.378Z,0.73
2019-04-27T10:23:07.157Z,1.13
2019-04-27T10:25:37.664Z,0.90
2019-04-27T10:28:07.195Z,1.00
2019-04-27T10:30:36.868Z,1.00
2019-04-27T10:33:08.148Z,0.90
2019-04-27T10:35:37.917Z,1.00
2019-04-27T10:38:07.504Z,0.80
2019-04-27T10:40:37.004Z,1.10
2019-04-27T10:43:07.083Z,1.20
2019-04-27T10:45:37.890Z,1.20
2019-04-27T10:48:07.613Z,1.23
2019-04-27T10:50:38.951Z,1.37
2019-04-27T10:53:08.531Z,0.80
2019-04-27T10:55:38.009Z,1.33
2019-04-27T10:58:07.643Z,1.40
2019-04-27T11:00:58.455Z,1.30
2019-04-27T11:03:46.341Z,0.93
2019-04-27T11:06:30.916Z,1.50
2019-04-27T11:09:00.553Z,1.17
2019-04-27T11:11:30.069Z,1.20
2019-04-27T11:14:01.049Z,0.83
2019-04-27T11:16:30.851Z,0.80
2019-04-27T11:19:00.367Z,0.97
2019-04-27T11:21:29.959Z,0.97
2019-04-27T11:23:59.594Z,1.10
2019-04-27T11:26:29.064Z,1.30
2019-04-27T11:28:58.646Z,1.13
2019-04-27T11:31:28.125Z,1.40
2019-04-27T11:33:57.911Z,0.90
2019-04-27T11:36:29.053Z,1.00
2019-04-27T11:39:03.387Z,1.03
2019-04-27T11:41:32.874Z,1.10
2019-04-27T11:44:02.444Z,0.90
2019-04-27T11:46:32.043Z,1.47
2019-04-27T11:49:01.537Z,0.97
2019-04-27T11:51:31.061Z,0.83
2019-04-27T11:54:00.587Z,1.13
2019-04-27T11:56:30.134Z,1.17
2019-04-27T11:58:59.638Z,1.00
2019-04-27T12:01:29.144Z,1.30
2019-04-27T12:03:58.690Z,1.00
2019-04-27T12:06:28.368Z,1.20
2019-04-27T12:08:57.858Z,1.00
2019-04-27T12:11:27.527Z,1.60
2019-04-27T12:13:57.010Z,1.20
2019-04-27T12:16:26.501Z,1.47
2019-04-27T12:18:56.473Z,1.50
2019-04-27T12:21:27.568Z,1.30
2019-04-27T12:23:57.039Z,1.10
2019-04-27T12:26:28.195Z,1.40
2019-04-27T12:28:59.108Z,0.90
2019-04-27T12:31:32.690Z,1.27
2019-04-27T12:34:02.271Z,1.23
2019-04-27T12:36:31.747Z,1.00
2019-04-27T12:39:01.267Z,1.17
2019-04-27T12:41:30.781Z,1.50
2019-04-27T12:44:00.293Z,1.30
2019-04-27T12:46:30.113Z,1.20
2019-04-27T12:49:19.129Z,1.23
2019-04-27T12:51:48.702Z,1.30
2019-04-27T12:54:19.818Z,1.20
2019-04-27T12:57:00.099Z,4.07
2019-04-27T12:59:47.428Z,1.90
2019-04-27T13:02:18.706Z,1.33
2019-04-27T13:04:48.158Z,1.40
2019-04-27T13:07:17.649Z,1.50
2019-04-27T13:09:47.113Z,1.00
2019-04-27T13:12:16.696Z,1.00
2019-04-27T13:14:46.172Z,1.10
2019-04-27T13:17:16.455Z,1.20
2019-04-27T13:19:46.065Z,0.80
2019-04-27T13:22:16.526Z,0.83
2019-04-27T13:24:46.188Z,1.10
2019-04-27T13:27:16.692Z,0.90
2019-04-27T13:29:46.665Z,0.80
2019-04-27T13:32:16.501Z,0.73
2019-04-27T13:34:46.478Z,0.70
2019-04-27T13:37:32.542Z,0.80
2019-04-27T13:40:06.990Z,0.80
2019-04-27T13:42:34.959Z,0.67
2019-04-27T13:45:08.303Z,0.97
2019-04-27T13:47:39.535Z,0.93
2019-04-27T13:50:10.779Z,0.80
2019-04-27T13:52:40.254Z,0.70
2019-04-27T13:55:10.084Z,0.80
2019-04-27T13:57:49.743Z,0.90
2019-04-27T14:00:12.644Z,1.10
2019-04-27T14:02:44.047Z,0.70
2019-04-27T14:05:13.741Z,0.80
2019-04-27T14:07:43.331Z,0.80
2019-04-27T14:10:12.996Z,0.60
2019-04-27T14:12:42.513Z,0.80
2019-04-27T14:15:12.184Z,0.70
2019-04-27T14:17:41.796Z,0.77
2019-04-27T14:20:11.564Z,1.07
2019-04-27T14:22:41.231Z,0.97
2019-04-27T14:25:10.888Z,1.17
2019-04-27T14:27:41.492Z,0.80
2019-04-27T14:30:13.566Z,0.87
2019-04-27T14:32:43.022Z,1.40
2019-04-27T14:35:12.741Z,1.10
2019-04-27T14:37:42.299Z,1.00
2019-04-27T14:40:12.107Z,1.40
2019-04-27T14:42:41.669Z,1.00
2019-04-27T14:45:11.543Z,0.90
2019-04-27T14:47:41.041Z,1.20
2019-04-27T14:50:11.342Z,0.80
2019-04-27T14:52:41.016Z,0.87
2019-04-27T14:55:10.683Z,1.00
2019-04-27T14:57:40.464Z,0.70
2019-04-27T15:00:12.041Z,1.03
2019-04-27T15:02:41.587Z,1.07
2019-04-27T15:05:11.390Z,0.90
2019-04-27T15:07:40.967Z,0.80
2019-04-27T15:10:10.735Z,0.80
2019-04-27T15:12:40.325Z,0.80
2019-04-27T15:15:10.226Z,0.87
2019-04-27T15:17:40.159Z,0.90
2019-04-27T15:20:15.031Z,1.10
2019-04-27T15:22:46.208Z,0.90
2019-04-27T15:25:15.913Z,0.93
2019-04-27T15:27:47.406Z,0.80
2019-04-27T15:30:22.267Z,0.90
2019-04-27T15:32:51.697Z,1.20
2019-04-27T15:35:35.430Z,0.90
2019-04-27T15:38:11.117Z,1.00
2019-04-27T15:40:56.258Z,0.87
2019-04-27T15:43:30.816Z,1.00
2019-04-27T15:45:58.790Z,1.60
2019-04-27T15:48:30.429Z,1.50
2019-04-27T15:51:03.310Z,1.37
2019-04-27T15:53:31.036Z,1.60
2019-04-27T15:56:01.868Z,1.20
2019-04-27T15:58:31.611Z,1.00
2019-04-27T16:01:05.963Z,0.97
2019-04-27T16:03:33.163Z,1.50
2019-04-27T16:06:03.276Z,1.50
2019-04-27T16:08:38.277Z,1.03
2019-04-27T16:11:05.305Z,0.70
2019-04-27T16:13:34.866Z,1.00
2019-04-27T16:16:04.576Z,1.13
2019-04-27T16:18:34.077Z,1.10
2019-04-27T16:21:07.078Z,0.90
2019-04-27T16:23:40.302Z,0.90
2019-04-27T16:26:11.267Z,0.97
2019-04-27T16:28:37.989Z,1.20
2019-04-27T16:31:07.620Z,0.90
2019-04-27T16:33:38.834Z,1.13
2019-04-27T16:36:09.718Z,1.00
2019-04-27T16:38:40.909Z,1.30
2019-04-27T16:41:10.524Z,1.33
2019-04-27T16:43:40.092Z,1.17
2019-04-27T16:46:09.844Z,1.23
2019-04-27T16:48:39.395Z,1.40
2019-04-27T16:51:10.692Z,1.50
2019-04-27T16:53:41.261Z,1.20
2019-04-27T16:56:15.104Z,0.97
2019-04-27T16:58:42.230Z,1.67
2019-04-27T17:01:14.910Z,1.00
2019-04-27T17:03:44.382Z,1.10
2019-04-27T17:06:13.937Z,1.00
2019-04-27T17:08:43.441Z,1.10
2019-04-27T17:11:13.852Z,1.10
2019-04-27T17:13:49.475Z,0.73
2019-04-27T17:16:36.276Z,1.00
2019-04-27T17:19:13.316Z,0.70
2019-04-27T17:21:42.786Z,0.70
2019-04-27T17:24:12.265Z,0.60
2019-04-27T17:26:43.504Z,0.80
2019-04-27T17:29:16.508Z,0.60
2019-04-27T17:31:50.479Z,1.60
2019-04-27T17:34:25.031Z,1.97
2019-04-27T17:36:54.666Z,0.90
2019-04-27T17:39:23.493Z,0.93
2019-04-27T17:41:53.012Z,0.87
2019-04-27T17:44:23.301Z,0.87
2019-04-27T17:46:52.815Z,1.10
2019-04-27T17:49:22.318Z,0.80
2019-04-27T17:51:51.812Z,1.00
2019-04-27T17:54:21.334Z,0.90
2019-04-27T17:56:52.392Z,1.00
2019-04-27T17:59:22.096Z,0.90
2019-04-27T18:01:53.975Z,1.40
2019-04-27T18:04:22.829Z,1.10
2019-04-27T18:06:55.693Z,0.97
2019-04-27T18:09:23.740Z,1.27
2019-04-27T18:11:54.565Z,1.03
2019-04-27T18:14:24.136Z,1.57
2019-04-27T18:16:53.787Z,1.67
2019-04-27T18:19:30.516Z,1.10
2019-04-27T18:22:01.749Z,1.20
2019-04-27T18:24:38.426Z,1.60
2019-04-27T18:27:09.678Z,2.00
2019-04-27T18:29:39.355Z,1.33
2019-04-27T18:32:08.966Z,1.23
2019-04-27T18:34:38.988Z,1.30
2019-04-27T18:37:08.480Z,1.40
2019-04-27T18:39:38.433Z,1.50
2019-04-27T18:42:09.235Z,1.30
2019-04-27T18:44:38.731Z,1.50
2019-04-27T18:47:08.538Z,1.10
2019-04-27T18:50:07.458Z,1.10
2019-04-27T18:52:40.779Z,1.43
2019-04-27T18:55:11.432Z,1.00
2019-04-27T18:57:40.703Z,1.00
2019-04-27T19:00:12.820Z,1.23
2019-04-27T19:02:42.381Z,1.20
2019-04-27T19:05:12.207Z,1.07
2019-04-27T19:07:42.168Z,1.10
2019-04-27T19:10:12.484Z,1.13
2019-04-27T19:12:42.109Z,1.30
2019-04-27T19:15:11.965Z,1.33
2019-04-27T19:17:41.498Z,1.30
2019-04-27T19:20:11.270Z,1.07
2019-04-27T19:22:40.819Z,1.23
2019-04-27T19:25:12.143Z,1.17
2019-04-27T19:27:43.386Z,1.20
2019-04-27T19:30:18.937Z,0.90
2019-04-27T19:32:48.749Z,0.90
2019-04-27T19:35:19.921Z,1.20
2019-04-27T19:37:49.666Z,1.43
2019-04-27T19:40:19.241Z,1.17
2019-04-27T19:42:48.775Z,1.00
2019-04-27T19:45:19.314Z,1.40
2019-04-27T19:47:49.565Z,1.17
2019-04-27T19:50:19.350Z,1.00
2019-04-27T19:52:50.319Z,1.50
2019-04-27T19:55:20.021Z,1.50
2019-04-27T19:57:49.850Z,1.10
2019-04-27T20:00:33.228Z,1.00
2019-04-27T20:03:04.481Z,0.83
2019-04-27T20:05:34.417Z,0.87
2019-04-27T20:08:05.667Z,1.10
2019-04-27T20:10:43.894Z,1.00
2019-04-27T20:13:13.457Z,1.40
2019-04-27T20:15:43.079Z,2.57
2019-04-27T20:18:12.647Z,2.13
2019-04-27T20:20:42.158Z,2.10
2019-04-27T20:23:11.739Z,3.53
2019-04-27T20:25:41.336Z,2.47
2019-04-27T20:28:12.056Z,1.47
2019-04-27T20:30:41.745Z,1.73
2019-04-27T20:33:11.208Z,1.27
2019-04-27T20:35:42.551Z,1.40
2019-04-27T20:38:12.874Z,1.50
2019-04-27T20:40:42.520Z,1.50
2019-04-27T20:43:11.980Z,1.20
2019-04-27T20:45:41.757Z,1.37
2019-04-27T20:48:11.308Z,2.10
2019-04-27T20:50:41.169Z,1.67
2019-04-27T20:53:15.148Z,1.83
2019-04-27T20:55:44.664Z,2.07
2019-04-27T20:58:14.175Z,2.00
2019-04-27T21:00:43.688Z,2.23
2019-04-27T21:03:20.708Z,1.60
2019-04-27T21:05:58.624Z,1.40
2019-04-27T21:08:31.132Z,1.80
2019-04-27T21:11:01.644Z,1.87
2019-04-27T21:13:31.187Z,1.60
2019-04-27T21:16:02.246Z,1.60
2019-04-27T21:18:31.923Z,1.60
2019-04-27T21:21:01.466Z,1.80
2019-04-27T21:23:31.314Z,1.70
2019-04-27T21:26:02.168Z,1.50
2019-04-27T21:28:31.843Z,1.80
2019-04-27T21:31:01.500Z,1.90
2019-04-27T21:33:31.806Z,2.07
2019-04-27T21:36:01.541Z,2.20
2019-04-27T21:38:31.018Z,2.33
2019-04-27T21:41:00.582Z,1.93
2019-04-27T21:43:30.096Z,2.20
2019-04-27T21:45:59.631Z,2.37
2019-04-27T21:48:31.162Z,2.10
2019-04-27T21:51:01.548Z,2.10
2019-04-27T21:53:49.084Z,2.30
2019-04-27T21:56:18.573Z,1.70
2019-04-27T21:58:48.154Z,1.93
2019-04-27T22:01:23.875Z,1.90
2019-04-27T22:03:53.450Z,2.17
2019-04-27T22:06:23.068Z,1.70
2019-04-27T22:08:52.605Z,1.60
2019-04-27T22:11:22.187Z,1.67
2019-04-27T22:13:52.252Z,1.30
2019-04-27T22:16:21.855Z,1.80
2019-04-27T22:18:52.040Z,1.43
2019-04-27T22:21:21.891Z,2.30
2019-04-27T22:23:53.008Z,1.80
2019-04-27T22:26:22.562Z,1.67
2019-04-27T22:28:52.254Z,1.70
2019-04-27T22:31:22.023Z,1.83
2019-04-27T22:33:54.420Z,1.77
2019-04-27T22:36:22.797Z,1.60
2019-04-27T22:38:53.750Z,1.70
2019-04-27T22:41:27.913Z,1.90
2019-04-27T22:44:04.983Z,2.10
2019-04-27T22:46:38.776Z,1.73
2019-04-27T22:49:08.354Z,2.10
2019-04-27T22:51:42.733Z,1.80
2019-04-27T22:54:11.632Z,2.43
2019-04-27T22:56:42.932Z,1.90
2019-04-27T22:59:16.569Z,1.90
2019-04-27T23:01:57.472Z,1.80
2019-04-27T23:04:32.423Z,1.60
2019-04-27T23:07:02.682Z,1.87
2019-04-27T23:09:32.181Z,1.70
2019-04-27T23:12:01.976Z,1.60
2019-04-27T23:14:31.511Z,1.70
2019-04-27T23:17:03.227Z,1.70
2019-04-27T23:19:32.806Z,1.77
2019-04-27T23:22:02.279Z,2.00
2019-04-27T23:24:31.855Z,1.70
2019-04-27T23:27:03.382Z,1.83
2019-04-27T23:29:33.226Z,1.93
2019-04-27T23:32:11.680Z,1.60
2019-04-27T23:34:41.604Z,1.67
2019-04-27T23:37:11.317Z,1.60
2019-04-27T23:39:40.812Z,1.30
2019-04-27T23:42:11.600Z,1.43
2019-04-27T23:44:41.143Z,1.23
2019-04-27T23:47:10.600Z,1.60
2019-04-27T23:49:40.845Z,1.40
2019-04-27T23:52:17.617Z,1.50
2019-04-27T23:54:47.292Z,2.23
2019-04-27T23:57:16.837Z,1.67
2019-04-27T23:59:46.327Z,2.17
